sensor_id;sensor_type;location;lat;lon;timestamp;P1;durP1;ratioP1;P2;durP2;ratioP2
39846;SDS011;25517;52.422;10.782;2022-10-16T00:00:43;3.53;;;1.50;;
39846;SDS011;25517;52.422;10.782;2022-10-16T00:03:09;0.95;;;0.93;;
39846;SDS011;25517;52.422;10.782;2022-10-16T00:05:42;0.93;;;0.88;;
39846;SDS011;25517;52.422;10.782;2022-10-16T00:08:09;2.28;;;1.20;;
39846;SDS011;25517;52.422;10.782;2022-10-16T00:10:38;4.90;;;1.33;;
39846;SDS011;25517;52.422;10.782;2022-10-16T00:13:04;3.65;;;1.15;;
39846;SDS011;25517;52.422;10.782;2022-10-16T00:15:32;1.20;;;1.10;;
39846;SDS011;25517;52.422;10.782;2022-10-16T00:18:01;2.92;;;1.38;;
39846;SDS011;25517;52.422;10.782;2022-10-16T00:20:26;1.45;;;1.25;;
39846;SDS011;25517;52.422;10.782;2022-10-16T00:22:52;3.15;;;1.48;;
39846;SDS011;25517;52.422;10.782;2022-10-16T00:25:17;6.25;;;1.15;;
39846;SDS011;25517;52.422;10.782;2022-10-16T00:27:43;3.95;;;1.20;;
39846;SDS011;25517;52.422;10.782;2022-10-16T00:30:08;1.90;;;1.25;;
39846;SDS011;25517;52.422;10.782;2022-10-16T00:32:34;3.30;;;1.42;;
39846;SDS011;25517;52.422;10.782;2022-10-16T00:34:59;5.93;;;1.65;;
39846;SDS011;25517;52.422;10.782;2022-10-16T00:37:25;5.22;;;1.70;;
39846;SDS011;25517;52.422;10.782;2022-10-16T00:39:50;2.50;;;1.50;;
39846;SDS011;25517;52.422;10.782;2022-10-16T00:42:16;4.93;;;1.58;;
39846;SDS011;25517;52.422;10.782;2022-10-16T00:44:51;3.50;;;1.48;;
39846;SDS011;25517;52.422;10.782;2022-10-16T00:47:32;2.85;;;2.03;;
39846;SDS011;25517;52.422;10.782;2022-10-16T00:50:08;2.67;;;1.60;;
39846;SDS011;25517;52.422;10.782;2022-10-16T00:52:39;4.88;;;1.60;;
39846;SDS011;25517;52.422;10.782;2022-10-16T00:55:08;2.85;;;1.73;;
39846;SDS011;25517;52.422;10.782;2022-10-16T00:57:34;3.25;;;1.67;;
39846;SDS011;25517;52.422;10.782;2022-10-16T01:00:02;5.65;;;1.63;;
39846;SDS011;25517;52.422;10.782;2022-10-16T01:02:30;4.00;;;1.95;;
39846;SDS011;25517;52.422;10.782;2022-10-16T01:04:55;3.30;;;1.83;;
39846;SDS011;25517;52.422;10.782;2022-10-16T01:12:58;2.80;;;1.70;;
39846;SDS011;25517;52.422;10.782;2022-10-16T01:15:34;5.03;;;2.30;;
39846;SDS011;25517;52.422;10.782;2022-10-16T01:18:06;3.72;;;1.95;;
39846;SDS011;25517;52.422;10.782;2022-10-16T01:29:29;4.07;;;1.63;;
39846;SDS011;25517;52.422;10.782;2022-10-16T01:34:33;2.15;;;1.85;;
39846;SDS011;25517;52.422;10.782;2022-10-16T01:37:08;9.95;;;1.88;;
39846;SDS011;25517;52.422;10.782;2022-10-16T01:39:38;2.83;;;1.83;;
39846;SDS011;25517;52.422;10.782;2022-10-16T01:42:14;5.05;;;1.92;;
39846;SDS011;25517;52.422;10.782;2022-10-16T01:44:43;5.97;;;2.13;;
39846;SDS011;25517;52.422;10.782;2022-10-16T01:47:12;4.80;;;2.15;;
39846;SDS011;25517;52.422;10.782;2022-10-16T01:49:39;4.88;;;2.20;;
39846;SDS011;25517;52.422;10.782;2022-10-16T01:52:08;3.33;;;2.00;;
39846;SDS011;25517;52.422;10.782;2022-10-16T01:54:37;6.03;;;2.45;;
39846;SDS011;25517;52.422;10.782;2022-10-16T01:57:07;4.95;;;2.13;;
39846;SDS011;25517;52.422;10.782;2022-10-16T01:59:35;3.92;;;2.30;;
39846;SDS011;25517;52.422;10.782;2022-10-16T02:02:05;4.35;;;1.83;;
39846;SDS011;25517;52.422;10.782;2022-10-16T02:04:33;5.93;;;2.30;;
39846;SDS011;25517;52.422;10.782;2022-10-16T02:07:02;4.05;;;1.92;;
39846;SDS011;25517;52.422;10.782;2022-10-16T02:09:29;2.88;;;1.98;;
39846;SDS011;25517;52.422;10.782;2022-10-16T02:11:57;5.90;;;2.40;;
39846;SDS011;25517;52.422;10.782;2022-10-16T02:14:27;3.33;;;2.30;;
39846;SDS011;25517;52.422;10.782;2022-10-16T02:16:53;6.35;;;2.50;;
39846;SDS011;25517;52.422;10.782;2022-10-16T02:19:19;2.72;;;2.47;;
39846;SDS011;25517;52.422;10.782;2022-10-16T02:21:51;5.53;;;2.40;;
39846;SDS011;25517;52.422;10.782;2022-10-16T02:24:32;3.30;;;2.40;;
39846;SDS011;25517;52.422;10.782;2022-10-16T02:30:13;3.13;;;2.30;;
39846;SDS011;25517;52.422;10.782;2022-10-16T02:32:44;4.47;;;2.30;;
39846;SDS011;25517;52.422;10.782;2022-10-16T02:35:12;9.80;;;2.40;;
39846;SDS011;25517;52.422;10.782;2022-10-16T02:37:40;2.20;;;2.00;;
39846;SDS011;25517;52.422;10.782;2022-10-16T02:40:06;6.45;;;2.60;;
39846;SDS011;25517;52.422;10.782;2022-10-16T02:42:34;4.45;;;2.60;;
39846;SDS011;25517;52.422;10.782;2022-10-16T02:45:02;6.43;;;2.40;;
39846;SDS011;25517;52.422;10.782;2022-10-16T02:47:28;3.05;;;2.20;;
39846;SDS011;25517;52.422;10.782;2022-10-16T02:49:54;2.40;;;1.60;;
39846;SDS011;25517;52.422;10.782;2022-10-16T02:52:19;4.20;;;2.25;;
39846;SDS011;25517;52.422;10.782;2022-10-16T02:54:45;4.50;;;2.03;;
39846;SDS011;25517;52.422;10.782;2022-10-16T02:57:11;8.02;;;2.30;;
39846;SDS011;25517;52.422;10.782;2022-10-16T02:59:36;2.25;;;2.00;;
39846;SDS011;25517;52.422;10.782;2022-10-16T03:02:02;6.47;;;3.13;;
39846;SDS011;25517;52.422;10.782;2022-10-16T03:04:28;4.65;;;2.30;;
39846;SDS011;25517;52.422;10.782;2022-10-16T03:06:53;2.72;;;2.45;;
39846;SDS011;25517;52.422;10.782;2022-10-16T03:09:19;3.97;;;2.35;;
39846;SDS011;25517;52.422;10.782;2022-10-16T03:11:44;3.30;;;2.30;;
39846;SDS011;25517;52.422;10.782;2022-10-16T03:14:10;3.83;;;2.15;;
39846;SDS011;25517;52.422;10.782;2022-10-16T03:16:35;2.63;;;2.30;;
39846;SDS011;25517;52.422;10.782;2022-10-16T03:19:00;5.80;;;2.58;;
39846;SDS011;25517;52.422;10.782;2022-10-16T03:21:27;2.65;;;2.45;;
39846;SDS011;25517;52.422;10.782;2022-10-16T03:23:52;6.35;;;2.13;;
39846;SDS011;25517;52.422;10.782;2022-10-16T03:26:18;3.22;;;2.67;;
39846;SDS011;25517;52.422;10.782;2022-10-16T03:28:43;5.97;;;2.80;;
39846;SDS011;25517;52.422;10.782;2022-10-16T03:31:08;4.28;;;2.50;;
39846;SDS011;25517;52.422;10.782;2022-10-16T03:33:34;7.22;;;3.50;;
39846;SDS011;25517;52.422;10.782;2022-10-16T03:35:59;5.68;;;2.90;;
39846;SDS011;25517;52.422;10.782;2022-10-16T03:38:25;5.35;;;2.67;;
39846;SDS011;25517;52.422;10.782;2022-10-16T03:40:51;6.90;;;2.70;;
39846;SDS011;25517;52.422;10.782;2022-10-16T03:43:16;3.78;;;2.75;;
39846;SDS011;25517;52.422;10.782;2022-10-16T03:45:42;6.88;;;2.95;;
39846;SDS011;25517;52.422;10.782;2022-10-16T03:48:07;5.78;;;2.83;;
39846;SDS011;25517;52.422;10.782;2022-10-16T03:50:33;5.45;;;2.70;;
39846;SDS011;25517;52.422;10.782;2022-10-16T03:52:58;5.63;;;2.88;;
39846;SDS011;25517;52.422;10.782;2022-10-16T03:55:23;5.78;;;2.72;;
39846;SDS011;25517;52.422;10.782;2022-10-16T03:57:49;6.85;;;2.72;;
39846;SDS011;25517;52.422;10.782;2022-10-16T04:00:14;6.65;;;2.92;;
39846;SDS011;25517;52.422;10.782;2022-10-16T04:02:40;3.83;;;2.40;;
39846;SDS011;25517;52.422;10.782;2022-10-16T04:05:06;8.63;;;2.45;;
39846;SDS011;25517;52.422;10.782;2022-10-16T04:07:31;2.63;;;2.40;;
39846;SDS011;25517;52.422;10.782;2022-10-16T04:09:57;3.45;;;2.50;;
39846;SDS011;25517;52.422;10.782;2022-10-16T04:12:24;11.27;;;3.17;;
39846;SDS011;25517;52.422;10.782;2022-10-16T04:14:50;7.75;;;2.97;;
39846;SDS011;25517;52.422;10.782;2022-10-16T04:17:16;4.85;;;2.90;;
39846;SDS011;25517;52.422;10.782;2022-10-16T04:19:41;8.30;;;3.40;;
39846;SDS011;25517;52.422;10.782;2022-10-16T04:22:07;4.50;;;2.58;;
39846;SDS011;25517;52.422;10.782;2022-10-16T04:24:32;6.80;;;3.08;;
39846;SDS011;25517;52.422;10.782;2022-10-16T04:26:58;5.00;;;2.40;;
39846;SDS011;25517;52.422;10.782;2022-10-16T04:29:23;4.38;;;2.75;;
39846;SDS011;25517;52.422;10.782;2022-10-16T04:31:49;5.03;;;3.08;;
39846;SDS011;25517;52.422;10.782;2022-10-16T04:34:14;8.63;;;3.20;;
39846;SDS011;25517;52.422;10.782;2022-10-16T04:36:40;7.28;;;2.75;;
39846;SDS011;25517;52.422;10.782;2022-10-16T04:39:05;9.02;;;3.35;;
39846;SDS011;25517;52.422;10.782;2022-10-16T04:41:31;5.65;;;2.70;;
39846;SDS011;25517;52.422;10.782;2022-10-16T04:43:56;6.00;;;2.95;;
39846;SDS011;25517;52.422;10.782;2022-10-16T04:46:22;7.65;;;2.90;;
39846;SDS011;25517;52.422;10.782;2022-10-16T04:48:47;4.22;;;2.97;;
39846;SDS011;25517;52.422;10.782;2022-10-16T04:51:13;5.90;;;2.67;;
39846;SDS011;25517;52.422;10.782;2022-10-16T04:53:38;5.35;;;3.05;;
39846;SDS011;25517;52.422;10.782;2022-10-16T04:56:04;7.53;;;3.30;;
39846;SDS011;25517;52.422;10.782;2022-10-16T04:58:29;6.15;;;3.20;;
39846;SDS011;25517;52.422;10.782;2022-10-16T05:00:55;9.75;;;3.13;;
39846;SDS011;25517;52.422;10.782;2022-10-16T05:03:21;7.45;;;3.67;;
39846;SDS011;25517;52.422;10.782;2022-10-16T05:05:46;7.70;;;3.38;;
39846;SDS011;25517;52.422;10.782;2022-10-16T05:08:15;8.23;;;3.10;;
39846;SDS011;25517;52.422;10.782;2022-10-16T05:10:42;3.88;;;2.97;;
39846;SDS011;25517;52.422;10.782;2022-10-16T05:13:09;10.95;;;2.80;;
39846;SDS011;25517;52.422;10.782;2022-10-16T05:15:34;6.82;;;2.85;;
39846;SDS011;25517;52.422;10.782;2022-10-16T05:18:00;3.53;;;2.58;;
39846;SDS011;25517;52.422;10.782;2022-10-16T05:20:25;5.63;;;2.67;;
39846;SDS011;25517;52.422;10.782;2022-10-16T05:22:51;3.53;;;2.63;;
39846;SDS011;25517;52.422;10.782;2022-10-16T05:25:16;5.80;;;3.03;;
39846;SDS011;25517;52.422;10.782;2022-10-16T05:27:42;5.97;;;3.13;;
39846;SDS011;25517;52.422;10.782;2022-10-16T05:30:08;5.85;;;3.20;;
39846;SDS011;25517;52.422;10.782;2022-10-16T05:32:33;6.50;;;3.50;;
39846;SDS011;25517;52.422;10.782;2022-10-16T05:34:59;6.82;;;3.13;;
39846;SDS011;25517;52.422;10.782;2022-10-16T05:37:25;8.15;;;3.05;;
39846;SDS011;25517;52.422;10.782;2022-10-16T05:39:52;12.63;;;3.08;;
39846;SDS011;25517;52.422;10.782;2022-10-16T05:42:17;5.65;;;3.70;;
39846;SDS011;25517;52.422;10.782;2022-10-16T05:44:43;8.15;;;3.33;;
39846;SDS011;25517;52.422;10.782;2022-10-16T05:47:08;4.05;;;3.33;;
39846;SDS011;25517;52.422;10.782;2022-10-16T05:49:35;5.65;;;2.75;;
39846;SDS011;25517;52.422;10.782;2022-10-16T05:52:01;4.40;;;3.38;;
39846;SDS011;25517;52.422;10.782;2022-10-16T05:54:26;5.43;;;3.42;;
39846;SDS011;25517;52.422;10.782;2022-10-16T05:56:52;8.82;;;3.42;;
39846;SDS011;25517;52.422;10.782;2022-10-16T05:59:17;10.32;;;3.15;;
39846;SDS011;25517;52.422;10.782;2022-10-16T06:01:43;4.55;;;3.30;;
39846;SDS011;25517;52.422;10.782;2022-10-16T06:04:08;7.45;;;3.38;;
39846;SDS011;25517;52.422;10.782;2022-10-16T06:06:34;6.43;;;3.42;;
39846;SDS011;25517;52.422;10.782;2022-10-16T06:09:01;4.05;;;3.35;;
39846;SDS011;25517;52.422;10.782;2022-10-16T06:11:28;5.38;;;3.40;;
39846;SDS011;25517;52.422;10.782;2022-10-16T06:13:55;5.45;;;3.55;;
39846;SDS011;25517;52.422;10.782;2022-10-16T06:16:23;7.15;;;3.53;;
39846;SDS011;25517;52.422;10.782;2022-10-16T06:18:53;5.72;;;4.07;;
39846;SDS011;25517;52.422;10.782;2022-10-16T06:23:47;4.57;;;3.30;;
39846;SDS011;25517;52.422;10.782;2022-10-16T06:26:13;5.70;;;3.65;;
39846;SDS011;25517;52.422;10.782;2022-10-16T06:28:41;4.78;;;3.40;;
39846;SDS011;25517;52.422;10.782;2022-10-16T06:31:08;8.20;;;3.47;;
39846;SDS011;25517;52.422;10.782;2022-10-16T06:33:34;6.32;;;3.63;;
39846;SDS011;25517;52.422;10.782;2022-10-16T06:36:01;4.75;;;3.28;;
39846;SDS011;25517;52.422;10.782;2022-10-16T06:38:37;7.10;;;3.42;;
39846;SDS011;25517;52.422;10.782;2022-10-16T06:41:03;8.07;;;3.20;;
39846;SDS011;25517;52.422;10.782;2022-10-16T06:43:30;6.38;;;3.00;;
39846;SDS011;25517;52.422;10.782;2022-10-16T06:46:02;5.35;;;2.97;;
39846;SDS011;25517;52.422;10.782;2022-10-16T06:48:29;7.82;;;3.17;;
39846;SDS011;25517;52.422;10.782;2022-10-16T06:53:35;6.93;;;3.03;;
39846;SDS011;25517;52.422;10.782;2022-10-16T06:58:33;5.30;;;2.42;;
39846;SDS011;25517;52.422;10.782;2022-10-16T07:00:59;4.50;;;2.90;;
39846;SDS011;25517;52.422;10.782;2022-10-16T07:03:24;7.10;;;3.33;;
39846;SDS011;25517;52.422;10.782;2022-10-16T07:05:50;6.55;;;3.20;;
39846;SDS011;25517;52.422;10.782;2022-10-16T07:08:15;3.38;;;2.55;;
39846;SDS011;25517;52.422;10.782;2022-10-16T07:10:41;10.50;;;3.17;;
39846;SDS011;25517;52.422;10.782;2022-10-16T07:13:06;5.43;;;3.00;;
39846;SDS011;25517;52.422;10.782;2022-10-16T07:15:32;5.18;;;3.10;;
39846;SDS011;25517;52.422;10.782;2022-10-16T07:17:58;9.57;;;3.58;;
39846;SDS011;25517;52.422;10.782;2022-10-16T07:20:24;3.28;;;2.58;;
39846;SDS011;25517;52.422;10.782;2022-10-16T07:22:50;2.92;;;2.50;;
39846;SDS011;25517;52.422;10.782;2022-10-16T07:25:16;11.40;;;3.10;;
39846;SDS011;25517;52.422;10.782;2022-10-16T07:27:41;4.70;;;2.85;;
39846;SDS011;25517;52.422;10.782;2022-10-16T07:30:07;5.32;;;2.70;;
39846;SDS011;25517;52.422;10.782;2022-10-16T07:32:33;10.48;;;3.22;;
39846;SDS011;25517;52.422;10.782;2022-10-16T07:34:58;3.50;;;2.88;;
39846;SDS011;25517;52.422;10.782;2022-10-16T07:37:23;10.77;;;2.78;;
39846;SDS011;25517;52.422;10.782;2022-10-16T07:39:49;4.78;;;2.60;;
39846;SDS011;25517;52.422;10.782;2022-10-16T07:42:14;18.15;;;2.63;;
39846;SDS011;25517;52.422;10.782;2022-10-16T07:44:40;4.97;;;2.53;;
39846;SDS011;25517;52.422;10.782;2022-10-16T07:47:05;5.13;;;2.30;;
39846;SDS011;25517;52.422;10.782;2022-10-16T07:49:31;2.70;;;2.35;;
39846;SDS011;25517;52.422;10.782;2022-10-16T07:51:56;2.80;;;2.08;;
39846;SDS011;25517;52.422;10.782;2022-10-16T07:54:22;4.70;;;2.60;;
39846;SDS011;25517;52.422;10.782;2022-10-16T07:56:47;3.90;;;2.30;;
39846;SDS011;25517;52.422;10.782;2022-10-16T07:59:13;3.72;;;2.17;;
39846;SDS011;25517;52.422;10.782;2022-10-16T08:01:38;7.38;;;2.63;;
39846;SDS011;25517;52.422;10.782;2022-10-16T08:04:04;10.20;;;2.40;;
39846;SDS011;25517;52.422;10.782;2022-10-16T08:06:34;3.38;;;2.40;;
39846;SDS011;25517;52.422;10.782;2022-10-16T08:09:02;4.50;;;2.28;;
39846;SDS011;25517;52.422;10.782;2022-10-16T08:11:28;2.92;;;2.30;;
39846;SDS011;25517;52.422;10.782;2022-10-16T08:13:53;4.20;;;2.55;;
39846;SDS011;25517;52.422;10.782;2022-10-16T08:16:19;3.83;;;2.55;;
39846;SDS011;25517;52.422;10.782;2022-10-16T08:18:44;2.95;;;2.00;;
39846;SDS011;25517;52.422;10.782;2022-10-16T08:21:15;2.72;;;1.90;;
39846;SDS011;25517;52.422;10.782;2022-10-16T08:23:42;4.00;;;2.00;;
39846;SDS011;25517;52.422;10.782;2022-10-16T08:26:09;3.20;;;2.17;;
39846;SDS011;25517;52.422;10.782;2022-10-16T08:28:35;7.60;;;2.00;;
39846;SDS011;25517;52.422;10.782;2022-10-16T08:31:13;2.42;;;1.58;;
39846;SDS011;25517;52.422;10.782;2022-10-16T08:33:41;3.40;;;1.90;;
39846;SDS011;25517;52.422;10.782;2022-10-16T08:36:09;4.25;;;1.77;;
39846;SDS011;25517;52.422;10.782;2022-10-16T08:38:35;3.55;;;1.65;;
39846;SDS011;25517;52.422;10.782;2022-10-16T08:41:02;3.67;;;1.80;;
39846;SDS011;25517;52.422;10.782;2022-10-16T08:43:35;2.53;;;1.50;;
39846;SDS011;25517;52.422;10.782;2022-10-16T08:46:32;4.38;;;1.30;;
39846;SDS011;25517;52.422;10.782;2022-10-16T08:49:09;3.35;;;1.52;;
39846;SDS011;25517;52.422;10.782;2022-10-16T08:51:38;2.25;;;1.20;;
39846;SDS011;25517;52.422;10.782;2022-10-16T08:54:05;2.15;;;1.23;;
39846;SDS011;25517;52.422;10.782;2022-10-16T08:56:37;3.40;;;1.40;;
39846;SDS011;25517;52.422;10.782;2022-10-16T08:59:03;6.78;;;1.73;;
39846;SDS011;25517;52.422;10.782;2022-10-16T09:01:37;1.95;;;1.40;;
39846;SDS011;25517;52.422;10.782;2022-10-16T09:04:18;5.93;;;1.50;;
39846;SDS011;25517;52.422;10.782;2022-10-16T09:15:00;3.33;;;1.42;;
39846;SDS011;25517;52.422;10.782;2022-10-16T09:17:52;2.78;;;1.20;;
39846;SDS011;25517;52.422;10.782;2022-10-16T09:23:12;3.65;;;1.23;;
39846;SDS011;25517;52.422;10.782;2022-10-16T09:25:44;1.38;;;0.85;;
39846;SDS011;25517;52.422;10.782;2022-10-16T09:28:12;5.17;;;1.13;;
39846;SDS011;25517;52.422;10.782;2022-10-16T09:30:38;3.72;;;0.80;;
39846;SDS011;25517;52.422;10.782;2022-10-16T09:33:04;0.90;;;0.80;;
39846;SDS011;25517;52.422;10.782;2022-10-16T09:38:04;3.00;;;1.13;;
39846;SDS011;25517;52.422;10.782;2022-10-16T09:40:31;6.07;;;0.98;;
39846;SDS011;25517;52.422;10.782;2022-10-16T09:43:20;1.27;;;0.77;;
39846;SDS011;25517;52.422;10.782;2022-10-16T09:45:54;2.05;;;0.90;;
39846;SDS011;25517;52.422;10.782;2022-10-16T09:48:21;3.97;;;0.93;;
39846;SDS011;25517;52.422;10.782;2022-10-16T09:51:00;1.17;;;0.77;;
39846;SDS011;25517;52.422;10.782;2022-10-16T09:53:44;6.25;;;1.27;;
39846;SDS011;25517;52.422;10.782;2022-10-16T09:56:12;3.33;;;0.90;;
39846;SDS011;25517;52.422;10.782;2022-10-16T09:58:57;2.40;;;0.80;;
39846;SDS011;25517;52.422;10.782;2022-10-16T10:01:26;1.98;;;1.10;;
39846;SDS011;25517;52.422;10.782;2022-10-16T10:04:02;1.30;;;0.77;;
39846;SDS011;25517;52.422;10.782;2022-10-16T10:06:36;10.63;;;1.67;;
39846;SDS011;25517;52.422;10.782;2022-10-16T10:09:20;1.58;;;0.60;;
39846;SDS011;25517;52.422;10.782;2022-10-16T10:14:35;2.10;;;0.90;;
39846;SDS011;25517;52.422;10.782;2022-10-16T10:17:16;2.13;;;0.70;;
39846;SDS011;25517;52.422;10.782;2022-10-16T10:19:54;3.95;;;0.85;;
39846;SDS011;25517;52.422;10.782;2022-10-16T10:22:41;4.95;;;0.93;;
39846;SDS011;25517;52.422;10.782;2022-10-16T10:27:39;1.05;;;0.70;;
39846;SDS011;25517;52.422;10.782;2022-10-16T10:30:18;2.65;;;0.75;;
